createdAt,value
2017-04-23T00:00:28.419Z,999.86
2017-04-23T00:01:38.433Z,999.82
2017-04-23T00:02:48.773Z,999.81
2017-04-23T00:03:58.775Z,999.8
2017-04-23T00:05:08.473Z,999.85
2017-04-23T00:06:18.819Z,999.87
2017-04-23T00:07:29.159Z,999.84
2017-04-23T00:08:39.487Z,999.84
2017-04-23T00:09:49.815Z,999.87
2017-04-23T00:11:00.196Z,999.82
2017-04-23T00:12:10.526Z,999.85
2017-04-23T00:13:20.550Z,999.86
2017-04-23T00:14:29.942Z,999.76
2017-04-23T00:15:39.963Z,999.77
2017-04-23T00:16:50.290Z,999.8
2017-04-23T00:18:00.309Z,999.71
2017-04-23T00:19:10.334Z,999.74
2017-04-23T00:20:20.679Z,999.72
2017-04-23T00:21:31.007Z,999.76
2017-04-23T00:22:41.031Z,999.77
2017-04-23T00:23:51.387Z,999.68
2017-04-23T00:25:01.422Z,999.71
2017-04-23T00:26:11.450Z,999.67
2017-04-23T00:27:21.480Z,999.63
2017-04-23T00:28:31.824Z,999.62
2017-04-23T00:29:41.839Z,999.58
2017-04-23T00:30:51.871Z,999.57
2017-04-23T00:32:02.207Z,999.56
2017-04-23T00:33:11.950Z,999.62
2017-04-23T00:34:21.960Z,999.62
2017-04-23T00:35:32.012Z,999.64
2017-04-23T00:36:42.347Z,999.62
2017-04-23T00:37:52.688Z,999.64
2017-04-23T00:39:02.696Z,999.61
2017-04-23T00:40:13.039Z,999.58
2017-04-23T00:41:23.060Z,999.6
2017-04-23T00:42:33.097Z,999.59
2017-04-23T00:43:43.436Z,999.58
2017-04-23T00:44:53.442Z,999.55
2017-04-23T00:46:03.784Z,999.58
2017-04-23T00:47:13.890Z,999.54
2017-04-23T00:48:23.906Z,999.5
2017-04-23T00:49:34.252Z,999.48
2017-04-23T00:50:44.275Z,999.44
2017-04-23T00:51:54.588Z,999.45
2017-04-23T00:53:04.302Z,999.45
2017-04-23T00:54:14.311Z,999.45
2017-04-23T00:55:24.373Z,999.44
2017-04-23T00:56:34.734Z,999.45
2017-04-23T00:57:45.077Z,999.41
2017-04-23T00:58:55.417Z,999.4
2017-04-23T01:00:05.445Z,999.4
2017-04-23T01:01:15.472Z,999.39
2017-04-23T01:02:25.181Z,999.43
2017-04-23T01:03:35.217Z,999.49
2017-04-23T01:04:44.901Z,999.43
2017-04-23T01:05:54.915Z,999.56
2017-04-23T01:07:05.268Z,999.51
2017-04-23T01:08:15.282Z,999.56
2017-04-23T01:09:25.610Z,999.55
2017-04-23T01:10:35.935Z,999.55
2017-04-23T01:11:45.942Z,999.58
2017-04-23T01:12:56.268Z,999.58
2017-04-23T01:14:06.601Z,999.56
2017-04-23T01:15:16.933Z,999.6
2017-04-23T01:16:26.965Z,999.62
2017-04-23T01:17:37.319Z,999.58
2017-04-23T01:18:47.656Z,999.6
2017-04-23T01:19:58.009Z,999.55
2017-04-23T01:21:08.030Z,999.59
2017-04-23T01:22:17.750Z,999.61
2017-04-23T01:23:28.099Z,999.57
2017-04-23T01:24:38.454Z,999.61
2017-04-23T01:25:48.534Z,999.57
2017-04-23T01:26:58.860Z,999.57
2017-04-23T01:28:08.865Z,999.58
2017-04-23T01:29:19.185Z,999.59
2017-04-23T01:30:29.203Z,999.55
2017-04-23T01:31:39.520Z,999.59
2017-04-23T01:32:49.566Z,999.55
2017-04-23T01:33:59.889Z,999.51
2017-04-23T01:35:10.245Z,999.51
2017-04-23T01:36:20.263Z,999.51
2017-04-23T01:37:30.294Z,999.45
2017-04-23T01:38:40.325Z,999.44
2017-04-23T01:39:50.339Z,999.48
2017-04-23T01:41:00.661Z,999.45
2017-04-23T01:42:10.991Z,999.4
2017-04-23T01:43:21.348Z,999.38
2017-04-23T01:44:31.693Z,999.41
2017-04-23T01:45:42.041Z,999.33
2017-04-23T01:46:52.084Z,999.34
2017-04-23T01:48:02.434Z,999.38
2017-04-23T01:49:12.761Z,999.42
2017-04-23T01:50:22.472Z,999.42
2017-04-23T01:51:32.795Z,999.41
2017-04-23T01:52:43.130Z,999.42
2017-04-23T01:53:52.830Z,999.38
2017-04-23T01:55:03.179Z,999.52
2017-04-23T01:56:13.501Z,999.55
2017-04-23T01:57:23.841Z,999.54
2017-04-23T01:58:33.864Z,999.6
2017-04-23T01:59:44.197Z,999.58
2017-04-23T02:00:54.538Z,999.59
2017-04-23T02:02:04.864Z,999.62
2017-04-23T02:03:14.899Z,999.59
2017-04-23T02:04:25.259Z,999.55
2017-04-23T02:05:35.597Z,999.6
2017-04-23T02:06:45.922Z,999.64
2017-04-23T02:07:56.251Z,999.58
2017-04-23T02:09:06.275Z,999.68
2017-04-23T02:10:16.676Z,999.6
2017-04-23T02:11:27.005Z,999.63
2017-04-23T02:12:36.702Z,999.64
2017-04-23T02:13:47.047Z,999.62
2017-04-23T02:14:57.069Z,999.64
2017-04-23T02:16:07.394Z,999.61
2017-04-23T02:17:17.452Z,999.66
2017-04-23T02:18:27.804Z,999.66
2017-04-23T02:19:37.830Z,999.65
2017-04-23T02:20:48.158Z,999.7
2017-04-23T02:21:58.512Z,999.7
2017-04-23T02:23:08.533Z,999.75
2017-04-23T02:24:18.873Z,999.69
2017-04-23T02:25:28.900Z,999.73
2017-04-23T02:26:39.216Z,999.73
2017-04-23T02:27:49.223Z,999.74
2017-04-23T02:28:59.563Z,999.68
2017-04-23T02:30:09.897Z,999.69
2017-04-23T02:31:20.225Z,999.69
2017-04-23T02:32:30.555Z,999.68
2017-04-23T02:33:40.585Z,999.69
2017-04-23T02:34:50.918Z,999.67
2017-04-23T02:36:01.257Z,999.64
2017-04-23T02:37:11.277Z,999.67
2017-04-23T02:38:20.975Z,999.7
2017-04-23T02:39:31.302Z,999.62
2017-04-23T02:40:41.027Z,999.68
2017-04-23T02:41:51.368Z,999.58
2017-04-23T02:43:01.702Z,999.61
2017-04-23T02:44:12.030Z,999.66
2017-04-23T02:45:22.363Z,999.64
2017-04-23T02:46:32.400Z,999.64
2017-04-23T02:47:42.718Z,999.62
2017-04-23T02:48:53.065Z,999.69
2017-04-23T02:50:02.776Z,999.67
2017-04-23T02:51:12.798Z,999.68
2017-04-23T02:52:23.116Z,999.73
2017-04-23T02:53:33.126Z,999.7
2017-04-23T02:54:43.483Z,999.71
2017-04-23T02:55:53.500Z,999.66
2017-04-23T02:57:03.846Z,999.66
2017-04-23T02:58:14.195Z,999.68
2017-04-23T02:59:24.214Z,999.66
2017-04-23T03:00:34.551Z,999.65
2017-04-23T03:01:44.867Z,999.59
2017-04-23T03:32:46.270Z,999.73
2017-04-23T03:33:56.598Z,999.64
2017-04-23T03:35:06.911Z,999.74
2017-04-23T03:36:16.922Z,999.77
2017-04-23T03:37:27.242Z,999.72
2017-04-23T03:38:37.642Z,999.73
2017-04-23T03:39:47.985Z,999.81
2017-04-23T03:40:58.310Z,999.79
2017-04-23T03:42:08.661Z,999.78
2017-04-23T03:43:18.655Z,999.77
2017-04-23T03:44:28.701Z,999.84
2017-04-23T03:45:39.055Z,999.8
2017-04-23T03:46:49.397Z,999.75
2017-04-23T03:47:59.428Z,999.78
2017-04-23T03:49:09.464Z,999.76
2017-04-23T03:50:19.793Z,999.82
2017-04-23T03:51:29.808Z,999.78
2017-04-23T03:52:40.124Z,999.77
2017-04-23T03:53:50.182Z,999.8
2017-04-23T03:55:00.520Z,999.83
2017-04-23T03:56:10.525Z,999.83
2017-04-23T03:57:20.852Z,999.83
2017-04-23T03:58:31.200Z,999.91
2017-04-23T03:59:41.536Z,999.93
2017-04-23T04:00:51.545Z,999.94
2017-04-23T04:02:01.888Z,999.97
2017-04-23T04:03:12.229Z,999.99
2017-04-23T04:04:22.250Z,1000.02
2017-04-23T04:05:32.619Z,999.97
2017-04-23T04:06:42.958Z,1000
2017-04-23T04:07:52.978Z,1000.03
2017-04-23T04:09:03.309Z,1000.03
2017-04-23T04:10:13.645Z,1000.05
2017-04-23T04:11:23.345Z,1000.05
2017-04-23T04:12:33.667Z,1000.09
2017-04-23T04:13:43.388Z,1000.13
2017-04-23T04:14:53.755Z,1000.19
2017-04-23T04:16:04.113Z,1000.21
2017-04-23T04:17:14.434Z,1000.19
2017-04-23T04:18:24.146Z,1000.18
2017-04-23T04:19:34.538Z,1000.21
2017-04-23T04:20:44.296Z,1000.26
2017-04-23T04:21:54.616Z,1000.29
2017-04-23T04:23:04.945Z,1000.31
2017-04-23T04:24:15.006Z,1000.33
2017-04-23T04:25:25.023Z,1000.42
2017-04-23T04:26:35.034Z,1000.37
2017-04-23T04:27:45.396Z,1000.41
2017-04-23T04:28:55.422Z,1000.43
2017-04-23T04:30:05.763Z,1000.43
2017-04-23T04:31:16.081Z,1000.39
2017-04-23T04:32:26.088Z,1000.43
2017-04-23T04:33:36.444Z,1000.45
2017-04-23T04:34:46.779Z,1000.47
2017-04-23T04:35:57.111Z,1000.44
2017-04-23T04:37:07.132Z,1000.48
2017-04-23T04:38:16.927Z,1000.49
2017-04-23T04:39:27.291Z,1000.5
2017-04-23T04:40:37.644Z,1000.53
2017-04-23T04:41:47.381Z,1000.55
2017-04-23T04:42:57.719Z,1000.67
2017-04-23T04:44:08.054Z,1000.68
2017-04-23T04:45:18.420Z,1000.66
2017-04-23T04:46:29.006Z,1000.71
2017-04-23T04:47:39.340Z,1000.93
2017-04-23T04:48:49.924Z,1000.94
2017-04-23T04:49:59.956Z,1000.98
2017-04-23T04:51:10.302Z,1000.88
2017-04-23T04:52:20.647Z,1001.02
2017-04-23T04:53:30.978Z,1001.11
2017-04-23T04:54:41.346Z,1000.93
2017-04-23T04:55:51.692Z,1001
2017-04-23T04:57:02.030Z,1000.9
2017-04-23T04:58:11.728Z,1000.94
2017-04-23T04:59:22.057Z,1000.99
2017-04-23T05:00:32.398Z,1001.11
2017-04-23T05:01:42.715Z,1001.16
2017-04-23T05:02:52.738Z,1001.3
2017-04-23T05:04:03.072Z,1001.27
2017-04-23T05:05:13.404Z,1001.29
2017-04-23T05:06:23.730Z,1001.37
2017-04-23T05:07:34.080Z,1001.35
2017-04-23T05:08:44.113Z,1001.37
2017-04-23T05:09:54.453Z,1001.42
2017-04-23T05:11:04.798Z,1001.45
2017-04-23T05:12:15.129Z,1001.41
2017-04-23T05:13:25.159Z,1001.42
2017-04-23T05:14:35.505Z,1001.52
2017-04-23T05:15:45.840Z,1001.49
2017-04-23T05:16:56.190Z,1001.55
2017-04-23T05:18:06.240Z,1001.55
2017-04-23T05:19:16.601Z,1001.57
2017-04-23T05:20:26.638Z,1001.6
2017-04-23T05:21:36.979Z,1001.62
2017-04-23T05:22:47.346Z,1001.7
2017-04-23T05:23:57.695Z,1001.63
2017-04-23T05:25:08.040Z,1001.66
2017-04-23T05:26:18.381Z,1001.7
2017-04-23T05:27:28.397Z,1001.72
2017-04-23T05:28:38.748Z,1001.8
2017-04-23T05:29:49.105Z,1001.79
2017-04-23T05:30:59.453Z,1001.61
2017-04-23T05:32:09.804Z,1001.56
2017-04-23T05:33:19.865Z,1001.84
2017-04-23T05:34:30.436Z,1001.74
2017-04-23T05:35:40.778Z,1001.76
2017-04-23T05:36:51.122Z,1001.65
2017-04-23T05:38:01.133Z,1001.74
2017-04-23T05:39:11.150Z,1001.64
2017-04-23T05:40:21.483Z,1002.1
2017-04-23T05:41:31.849Z,1001.64
2017-04-23T05:42:42.178Z,1001.67
2017-04-23T05:43:52.518Z,1001.68
2017-04-23T05:45:02.874Z,1001.71
2017-04-23T05:46:13.202Z,1001.72
2017-04-23T05:47:23.551Z,1001.68
2017-04-23T05:48:33.881Z,1001.71
2017-04-23T05:49:44.226Z,1001.63
2017-04-23T05:50:54.270Z,1001.73
2017-04-23T05:52:04.607Z,1001.72
2017-04-23T05:53:14.934Z,1001.74
2017-04-23T05:54:24.937Z,1001.77
2017-04-23T05:55:34.966Z,1001.8
2017-04-23T05:56:45.297Z,1001.79
2017-04-23T05:57:55.019Z,1001.85
2017-04-23T05:59:05.354Z,1001.81
2017-04-23T06:00:15.390Z,1001.87
2017-04-23T06:01:25.723Z,1001.93
2017-04-23T06:02:35.744Z,1001.91
2017-04-23T06:03:46.103Z,1002.02
2017-04-23T06:04:56.129Z,1001.98
2017-04-23T06:06:06.161Z,1002
2017-04-23T06:07:16.511Z,1002.11
2017-04-23T06:08:26.845Z,1002.1
2017-04-23T06:09:37.190Z,1001.84
2017-04-23T06:10:47.552Z,1001.99
2017-04-23T06:11:57.928Z,1001.94
2017-04-23T06:13:08.266Z,1001.98
2017-04-23T06:14:18.635Z,1001.97
2017-04-23T06:15:28.704Z,1002.04
2017-04-23T06:16:38.720Z,1002
2017-04-23T06:17:49.058Z,1001.99
2017-04-23T06:18:59.408Z,1002.11
2017-04-23T06:20:09.771Z,1002.16
2017-04-23T06:21:20.112Z,1001.99
2017-04-23T06:22:30.134Z,1002.1
2017-04-23T06:23:40.483Z,1002.04
2017-04-23T06:24:50.824Z,1002.07
2017-04-23T06:26:01.151Z,1002.06
2017-04-23T06:27:11.491Z,1002.14
2017-04-23T06:28:21.193Z,1002.13
2017-04-23T06:29:31.216Z,1002.16
2017-04-23T06:30:41.244Z,1002.1
2017-04-23T06:31:51.581Z,1002.09
2017-04-23T06:33:01.627Z,1002.1
2017-04-23T06:34:11.955Z,1002.16
2017-04-23T06:35:22.296Z,1002.09
2017-04-23T06:36:32.645Z,1002.19
2017-04-23T06:37:42.363Z,1002.1
2017-04-23T06:38:52.405Z,1002.14
2017-04-23T06:40:02.723Z,1002.07
2017-04-23T06:41:13.049Z,1002.07
2017-04-23T06:42:23.394Z,1002.09
2017-04-23T06:43:33.091Z,1002.2
2017-04-23T06:44:43.426Z,1002.16
2017-04-23T06:45:53.759Z,1002.09
2017-04-23T06:47:03.772Z,1002.11
2017-04-23T06:48:14.101Z,1002.12
2017-04-23T06:49:24.150Z,1002.12
2017-04-23T06:50:34.195Z,1002.12
2017-04-23T06:51:44.215Z,1002.14
2017-04-23T06:52:54.239Z,1002.13
2017-04-23T06:54:04.569Z,1002.1
2017-04-23T06:55:14.585Z,1002.12
2017-04-23T06:56:24.911Z,1002.08
2017-04-23T06:57:35.245Z,1002.12
2017-04-23T06:58:45.563Z,1002.17
2017-04-23T06:59:55.595Z,1002.22
2017-04-23T07:01:05.946Z,1002.09
2017-04-23T07:02:15.657Z,1002.11
2017-04-23T07:03:25.984Z,1002.15
2017-04-23T07:04:36.320Z,1002.08
2017-04-23T07:05:46.661Z,1002.05
2017-04-23T07:06:57.009Z,1002.17
2017-04-23T07:08:07.380Z,1002.11
2017-04-23T07:09:17.394Z,1002.05
2017-04-23T07:10:27.754Z,1002.13
2017-04-23T07:11:37.791Z,1002.14
2017-04-23T07:12:47.812Z,1001.96
2017-04-23T07:13:58.155Z,1002.07
2017-04-23T07:15:08.494Z,1001.93
2017-04-23T07:16:18.858Z,1001.96
2017-04-23T07:17:29.205Z,1002.03
2017-04-23T07:18:39.558Z,1001.94
2017-04-23T07:19:49.895Z,1002.03
2017-04-23T07:21:00.238Z,1001.93
2017-04-23T07:22:10.628Z,1001.96
2017-04-23T07:23:20.989Z,1002.01
2017-04-23T07:24:31.021Z,1002.09
2017-04-23T07:25:40.742Z,1002.04
2017-04-23T07:26:51.090Z,1002.14
2017-04-23T07:28:01.434Z,1002.06
2017-04-23T07:29:11.766Z,1002.11
2017-04-23T07:30:22.114Z,1002.03
2017-04-23T07:31:32.462Z,1001.95
2017-04-23T07:32:42.809Z,1002
2017-04-23T07:33:53.193Z,1002.11
2017-04-23T07:35:02.906Z,1002.05
2017-04-23T07:36:13.239Z,1002.08
2017-04-23T07:37:22.962Z,1002.02
2017-04-23T07:38:33.312Z,1002.09
2017-04-23T07:39:43.364Z,1002.2
2017-04-23T07:40:53.700Z,1002.23
2017-04-23T07:42:04.047Z,1002.11
2017-04-23T07:43:14.093Z,1002.14
2017-04-23T07:44:24.431Z,1002.28
2017-04-23T07:45:34.477Z,1002.22
2017-04-23T07:46:44.802Z,1002.25
2017-04-23T07:47:55.131Z,1002.35
2017-04-23T07:49:05.461Z,1002.23
2017-04-23T07:50:15.493Z,1002.21
2017-04-23T07:51:25.858Z,1002.33
2017-04-23T07:52:36.182Z,1002.22
2017-04-23T07:53:46.523Z,1002.23
2017-04-23T07:54:56.881Z,1002.29
2017-04-23T07:56:07.225Z,1002.28
2017-04-23T07:57:17.554Z,1002.26
2017-04-23T07:58:27.886Z,1002.23
2017-04-23T07:59:38.228Z,1002.2
2017-04-23T08:00:48.544Z,1002.23
2017-04-23T08:01:57.636Z,1002.24
2017-04-23T08:03:07.352Z,1002.21
2017-04-23T08:04:17.399Z,1002.14
2017-04-23T08:05:27.106Z,1002.22
2017-04-23T08:06:37.127Z,1002.26
2017-04-23T08:07:47.464Z,1002.14
2017-04-23T08:08:57.811Z,1002.2
2017-04-23T08:10:07.837Z,1002.2
2017-04-23T08:11:18.194Z,1002.41
2017-04-23T08:12:28.552Z,1002.19
2017-04-23T08:13:38.283Z,1002.41
2017-04-23T08:14:48.616Z,1002.3
2017-04-23T08:15:58.637Z,1002.17
2017-04-23T08:17:08.655Z,1002.34
2017-04-23T08:18:18.676Z,1002.31
2017-04-23T08:19:29.011Z,1002.31
2017-04-23T08:20:39.350Z,1002.43
2017-04-23T08:21:49.710Z,1002.29
2017-04-23T08:23:00.061Z,1002.33
2017-04-23T08:24:10.089Z,1002.21
2017-04-23T08:25:20.427Z,1002.25
2017-04-23T08:26:30.767Z,1002.31
2017-04-23T08:27:41.101Z,1002.34
2017-04-23T08:28:51.143Z,1002.3
2017-04-23T08:30:01.174Z,1002.29
2017-04-23T08:31:11.510Z,1002.27
2017-04-23T08:32:21.874Z,1002.34
2017-04-23T08:33:32.223Z,1002.29
2017-04-23T08:34:42.255Z,1002.27
2017-04-23T08:35:52.291Z,1002.28
2017-04-23T08:37:02.325Z,1002.27
2017-04-23T08:38:12.682Z,1002.27
2017-04-23T08:39:23.002Z,1002.44
2017-04-23T08:40:33.024Z,1002.42
2017-04-23T08:41:43.377Z,1002.32
2017-04-23T08:42:53.718Z,1002.25
2017-04-23T08:44:03.751Z,1002.29
2017-04-23T08:45:14.128Z,1002.44
2017-04-23T08:46:24.461Z,1002.28
2017-04-23T08:47:34.793Z,1002.37
2017-04-23T08:48:45.131Z,1002.35
2017-04-23T08:49:55.480Z,1002.36
2017-04-23T08:51:05.830Z,1002.22
2017-04-23T08:52:16.182Z,1002.23
2017-04-23T08:53:26.522Z,1002.62
2017-04-23T08:54:36.264Z,1002.45
2017-04-23T08:55:46.284Z,1002.31
2017-04-23T08:56:56.633Z,1002.3
2017-04-23T08:58:06.990Z,1002.43
2017-04-23T08:59:17.346Z,1002.35
2017-04-23T09:00:27.679Z,1002.25
2017-04-23T09:01:38.044Z,1002.38
2017-04-23T09:02:48.399Z,1002.36
2017-04-23T09:03:58.757Z,1002.37
2017-04-23T09:05:09.102Z,1002.32
2017-04-23T09:06:19.136Z,1002.37
2017-04-23T09:07:29.575Z,1002.35
2017-04-23T09:08:39.926Z,1002.42
2017-04-23T09:09:50.291Z,1002.35
2017-04-23T09:11:00.305Z,1002.34
2017-04-23T09:12:10.652Z,1002.36
2017-04-23T09:13:21.001Z,1002.33
2017-04-23T09:14:31.025Z,1002.29
2017-04-23T09:15:41.351Z,1002.38
2017-04-23T09:16:51.686Z,1002.39
2017-04-23T09:18:02.028Z,1002.46
2017-04-23T09:19:12.394Z,1002.25
2017-04-23T09:20:22.762Z,1002.35
2017-04-23T09:21:33.108Z,1002.45
2017-04-23T09:22:43.444Z,1002.4
2017-04-23T09:23:53.787Z,1002.25
2017-04-23T09:25:04.113Z,1002.35
2017-04-23T09:26:14.450Z,1002.38
2017-04-23T09:27:24.488Z,1002.32
2017-04-23T09:28:34.526Z,1002.37
2017-04-23T09:29:44.575Z,1002.33
2017-04-23T09:30:54.892Z,1002.38
2017-04-23T09:32:05.226Z,1002.24
2017-04-23T09:33:15.240Z,1002.29
2017-04-23T09:34:25.608Z,1002.27
2017-04-23T09:35:35.945Z,1002.36
2017-04-23T09:36:46.343Z,1002.34
2017-04-23T09:37:56.371Z,1002.23
2017-04-23T09:39:06.710Z,1002.26
2017-04-23T09:40:16.443Z,1002.39
2017-04-23T09:41:26.758Z,1002.19
2017-04-23T09:42:36.770Z,1002.15
2017-04-23T09:43:47.106Z,1002.35
2017-04-23T09:44:57.133Z,1002.23
2017-04-23T09:46:07.174Z,1002.24
2017-04-23T09:47:17.196Z,1002.24
2017-04-23T09:48:27.539Z,1002.17
2017-04-23T09:49:37.869Z,1002.15
2017-04-23T09:50:48.246Z,1002.16
2017-04-23T09:51:58.608Z,1002.2
2017-04-23T09:53:08.646Z,1002.12
2017-04-23T09:54:18.686Z,1002.23
2017-04-23T09:55:29.048Z,1002.19
2017-04-23T09:56:39.081Z,1002.01
2017-04-23T09:57:49.115Z,1002.1
2017-04-23T09:58:59.154Z,1002.02
2017-04-23T10:00:09.244Z,1002.03
2017-04-23T10:01:18.967Z,1002.06
2017-04-23T10:02:29.041Z,1002.03
2017-04-23T10:03:39.072Z,1002.07
2017-04-23T10:04:48.789Z,1002.07
2017-04-23T10:05:58.830Z,1002.1
2017-04-23T10:07:08.865Z,1002.02
2017-04-23T10:08:19.206Z,1002.04
2017-04-23T10:09:29.551Z,1001.99
2017-04-23T10:10:39.901Z,1002.07
2017-04-23T10:11:50.287Z,1002
2017-04-23T10:13:00.317Z,1002
2017-04-23T10:14:10.657Z,1002.15
2017-04-23T10:15:21.068Z,1001.88
2017-04-23T10:16:31.395Z,1001.98
2017-04-23T10:17:41.752Z,1002.11
2017-04-23T10:18:52.119Z,1001.92
2017-04-23T10:20:02.184Z,1001.85
2017-04-23T10:21:12.207Z,1002
2017-04-23T10:22:21.943Z,1001.82
2017-04-23T10:23:32.290Z,1001.87
2017-04-23T10:24:42.627Z,1001.77
2017-04-23T10:25:52.982Z,1001.88
2017-04-23T10:27:03.034Z,1001.77
2017-04-23T10:28:13.382Z,1001.94
2017-04-23T10:29:23.729Z,1001.96
2017-04-23T10:30:34.097Z,1001.76
2017-04-23T10:31:44.448Z,1001.84
2017-04-23T10:32:54.484Z,1001.72
2017-04-23T10:34:04.199Z,1001.8
2017-04-23T10:35:13.934Z,1001.72
2017-04-23T10:36:23.973Z,1001.74
2017-04-23T10:37:33.685Z,1001.73
2017-04-23T10:38:43.722Z,1001.66
2017-04-23T10:39:54.085Z,1001.64
2017-04-23T10:41:04.435Z,1001.64
2017-04-23T10:42:14.772Z,1001.59
2017-04-23T10:43:24.810Z,1001.58
2017-04-23T10:44:34.832Z,1001.48
2017-04-23T10:45:45.164Z,1001.54
2017-04-23T10:46:55.181Z,1001.56
2017-04-23T10:48:05.208Z,1001.64
2017-04-23T10:49:15.569Z,1001.52
2017-04-23T10:50:25.945Z,1001.57
2017-04-23T10:51:36.287Z,1001.63
2017-04-23T10:52:46.621Z,1001.6
2017-04-23T10:53:56.345Z,1001.6
2017-04-23T10:55:06.368Z,1001.64
2017-04-23T10:56:16.390Z,1001.67
2017-04-23T10:57:26.747Z,1001.7
2017-04-23T10:58:37.142Z,1001.51
2017-04-23T10:59:47.154Z,1001.58
2017-04-23T11:00:57.493Z,1001.66
2017-04-23T11:02:07.837Z,1001.57
2017-04-23T11:03:17.568Z,1001.67
2017-04-23T11:04:27.591Z,1001.6
2017-04-23T11:05:37.923Z,1001.64
2017-04-23T11:06:47.650Z,1001.64
2017-04-23T11:07:58.010Z,1001.66
2017-04-23T11:09:08.356Z,1001.6
2017-04-23T11:10:18.694Z,1001.58
2017-04-23T11:11:29.036Z,1001.51
2017-04-23T11:12:39.443Z,1001.57
2017-04-23T11:13:49.801Z,1001.47
2017-04-23T11:14:59.840Z,1001.38
2017-04-23T11:16:09.879Z,1001.52
2017-04-23T11:17:19.590Z,1001.55
2017-04-23T11:18:29.926Z,1001.6
2017-04-23T11:19:40.261Z,1001.61
2017-04-23T11:20:50.625Z,1001.58
2017-04-23T11:22:00.961Z,1001.5
2017-04-23T11:23:11.294Z,1001.54
2017-04-23T11:24:21.619Z,1001.59
2017-04-23T11:25:31.964Z,1001.61
2017-04-23T11:26:42.314Z,1001.63
2017-04-23T11:27:52.657Z,1001.61
2017-04-23T11:29:02.683Z,1001.57
2017-04-23T11:30:12.389Z,1001.71
2017-04-23T11:31:22.717Z,1001.66
2017-04-23T11:32:33.068Z,1001.58
2017-04-23T11:33:43.419Z,1001.77
2017-04-23T11:34:53.792Z,1001.74
2017-04-23T11:36:03.835Z,1001.66
2017-04-23T11:37:14.177Z,1001.63
2017-04-23T11:38:24.550Z,1001.64
2017-04-23T11:39:34.826Z,1001.64
2017-04-23T11:40:44.856Z,1001.6
2017-04-23T11:41:54.881Z,1001.59
2017-04-23T11:43:04.917Z,1001.57
2017-04-23T11:44:14.939Z,1001.58
2017-04-23T11:45:25.327Z,1001.52
2017-04-23T11:46:35.718Z,1001.56
2017-04-23T11:47:46.084Z,1001.59
2017-04-23T11:48:56.422Z,1001.54
2017-04-23T11:50:06.150Z,1001.49
2017-04-23T11:51:16.501Z,1001.52
2017-04-23T11:52:26.842Z,1001.51
2017-04-23T11:53:37.199Z,1001.58
2017-04-23T11:54:47.549Z,1001.45
2017-04-23T11:55:57.883Z,1001.5
2017-04-23T11:57:08.263Z,1001.62
2017-04-23T11:58:18.604Z,1001.65
2017-04-23T11:59:28.986Z,1001.7
2017-04-23T12:00:39.353Z,1001.77
2017-04-23T12:01:49.689Z,1001.87
2017-04-23T12:03:00.038Z,1002.08
2017-04-23T12:04:10.385Z,1001.99
2017-04-23T12:05:20.722Z,1002.04
2017-04-23T12:06:30.733Z,1002.13
2017-04-23T12:07:41.085Z,1002.29
2017-04-23T12:08:51.442Z,1002.04
2017-04-23T12:10:01.793Z,1001.97
2017-04-23T12:11:12.153Z,1001.91
2017-04-23T12:12:22.183Z,1001.88
2017-04-23T12:13:32.518Z,1001.79
2017-04-23T12:14:42.562Z,1001.85
2017-04-23T12:15:52.579Z,1001.84
2017-04-23T12:17:02.915Z,1001.88
2017-04-23T12:18:13.260Z,1001.82
2017-04-23T12:19:23.599Z,1001.81
2017-04-23T12:20:33.979Z,1001.77
2017-04-23T12:21:44.010Z,1001.78
2017-04-23T12:22:54.052Z,1001.76
2017-04-23T12:24:04.069Z,1001.77
2017-04-23T12:25:14.411Z,1001.7
2017-04-23T12:26:24.448Z,1001.7
2017-04-23T12:27:34.472Z,1001.78
2017-04-23T12:28:44.839Z,1001.82
2017-04-23T12:29:54.874Z,1001.93
2017-04-23T12:31:04.909Z,1002.06
2017-04-23T12:32:15.274Z,1002.1
2017-04-23T12:33:25.624Z,1002.08
2017-04-23T12:34:35.032Z,1002.14
2017-04-23T12:35:45.436Z,1002.18
2017-04-23T12:36:55.860Z,1002.13
2017-04-23T12:38:06.294Z,1001.99
2017-04-23T12:39:16.852Z,1002.09
2017-04-23T12:40:27.274Z,1002.19
2017-04-23T12:41:36.768Z,1002.09
2017-04-23T12:42:46.876Z,1002.05
2017-04-23T12:43:57.250Z,1002.07
2017-04-23T12:45:07.724Z,1002
2017-04-23T12:46:18.090Z,1002.07
2017-04-23T12:47:28.611Z,1001.9
2017-04-23T12:48:39.141Z,1001.84
2017-04-23T12:49:49.627Z,1001.81
2017-04-23T12:51:00.091Z,1001.85
2017-04-23T12:52:10.530Z,1001.82
2017-04-23T12:53:20.922Z,1001.74
2017-04-23T12:54:31.453Z,1001.74
2017-04-23T12:55:41.913Z,1001.73
2017-04-23T12:56:52.203Z,1001.62
2017-04-23T12:58:02.389Z,1001.66
2017-04-23T12:59:12.820Z,1001.56
2017-04-23T13:00:23.273Z,1001.56
2017-04-23T13:01:33.739Z,1001.58
2017-04-23T13:02:43.905Z,1001.54
2017-04-23T13:03:54.337Z,1001.55
2017-04-23T13:05:04.732Z,1001.53
2017-04-23T13:06:15.116Z,1001.48
2017-04-23T13:07:25.581Z,1001.49
2017-04-23T13:08:35.987Z,1001.5
2017-04-23T13:09:46.100Z,1001.51
2017-04-23T13:10:56.558Z,1001.51
2017-04-23T13:12:06.633Z,1001.4
2017-04-23T13:13:17.035Z,1001.49
2017-04-23T13:14:27.467Z,1001.43
2017-04-23T13:15:37.921Z,1001.41
2017-04-23T13:16:48.325Z,1001.46
2017-04-23T13:17:58.753Z,1001.41
2017-04-23T13:19:08.885Z,1001.34
2017-04-23T13:20:19.340Z,1001.32
2017-04-23T13:21:29.519Z,1001.33
2017-04-23T13:22:39.959Z,1001.33
2017-04-23T13:23:50.374Z,1001.27
2017-04-23T13:25:00.817Z,1001.33
2017-04-23T13:26:10.592Z,1001.29
2017-04-23T13:27:20.712Z,1001.26
2017-04-23T13:28:30.768Z,1001.28
2017-04-23T13:29:40.519Z,1001.29
2017-04-23T13:30:50.747Z,1001.22
2017-04-23T13:32:00.628Z,1001.19
2017-04-23T13:33:11.054Z,1001.13
2017-04-23T13:34:21.126Z,1001.06
2017-04-23T13:35:31.577Z,1001.16
2017-04-23T13:36:42.070Z,1001.06
2017-04-23T13:37:51.838Z,1001.02
2017-04-23T13:39:02.477Z,1001.09
2017-04-23T13:40:12.942Z,1001.07
2017-04-23T13:41:23.754Z,1001.12
2017-04-23T13:42:33.555Z,1001.07
2017-04-23T13:43:44.049Z,1001.1
2017-04-23T13:44:54.178Z,1001.06
2017-04-23T13:46:04.569Z,1001.09
2017-04-23T13:47:14.653Z,1001.15
2017-04-23T13:48:24.475Z,1001.1
2017-04-23T13:49:34.896Z,1001.11
2017-04-23T13:50:45.392Z,1001.12
2017-04-23T13:51:55.767Z,1001.1
2017-04-23T13:53:06.194Z,1001.07
2017-04-23T13:54:16.298Z,1001.11
2017-04-23T13:55:26.742Z,1001.15
2017-04-23T13:56:37.130Z,1001.1
2017-04-23T13:57:47.586Z,1001.08
2017-04-23T13:58:57.767Z,1001.08
2017-04-23T14:00:08.200Z,1001.04
2017-04-23T14:01:18.675Z,1001.1
2017-04-23T14:02:29.141Z,1001.02
2017-04-23T14:03:39.557Z,1001.03
2017-04-23T14:04:50.341Z,1001.07
2017-04-23T14:06:00.530Z,1001.05
2017-04-23T14:07:10.715Z,1001.06
2017-04-23T14:08:21.228Z,1001.05
2017-04-23T14:09:31.348Z,1001.06
2017-04-23T14:10:42.290Z,1001.08
2017-04-23T14:11:53.252Z,1001.06
2017-04-23T14:13:05.538Z,1001.04
2017-04-23T14:14:16.498Z,1001.04
2017-04-23T14:15:27.171Z,1001.05
2017-04-23T14:16:38.099Z,1001.15
2017-04-23T14:17:48.366Z,1001.08
2017-04-23T14:18:59.776Z,1001.09
2017-04-23T14:20:11.367Z,1001.05
2017-04-23T14:21:22.913Z,1000.98
2017-04-23T14:22:33.988Z,1001.03
2017-04-23T14:23:44.634Z,1001.01
2017-04-23T14:24:54.905Z,1001.02
2017-04-23T14:26:05.382Z,1000.96
2017-04-23T14:27:15.848Z,1001.01
2017-04-23T14:28:26.283Z,1001.05
2017-04-23T14:29:36.729Z,1001.04
2017-04-23T14:30:47.101Z,1001.16
2017-04-23T14:31:57.537Z,1001.07
2017-04-23T14:33:07.292Z,1001.06
2017-04-23T14:34:17.711Z,1001.12
2017-04-23T14:35:28.127Z,1001.1
2017-04-23T14:36:38.542Z,1001.07
2017-04-23T14:37:48.652Z,1001.08
2017-04-23T14:38:59.047Z,1001.06
2017-04-23T14:40:09.223Z,1001.09
2017-04-23T14:41:19.305Z,1001.07
2017-04-23T14:42:29.691Z,1001.08
2017-04-23T14:43:40.083Z,1001.08
2017-04-23T14:44:50.459Z,1001.11
2017-04-23T14:46:00.859Z,1001.04
2017-04-23T14:47:11.259Z,1000.95
2017-04-23T14:48:21.412Z,1001.02
2017-04-23T14:49:31.471Z,1001